Time;durP1;ratioP1;P1;durP2;ratioP2;P2;SDS_P1;SDS_P2;PMS_P1;PMS_P2;Temp;Humidity;BMP_temperature;BMP_pressure;BME280_temperature;BME280_humidity;BME280_pressure;Samples;Min_cycle;Max_cycle;Signal;HPM_P1;HPM_P2
2022/04/02 00:01:09;;;;;;;18.75;17.75;;;;;;;;;;5113772;28;20198;-83
2022/04/02 00:03:37;;;;;;;18.67;17.77;;;;;;;;;;5113399;28;20230;-84
2022/04/02 00:06:04;;;;;;;18.85;17.85;;;;;;;;;;5113809;28;20191;-85
2022/04/02 00:08:31;;;;;;;19.50;18.40;;;;;;;;;;5113828;28;20201;-84
2022/04/02 00:11:00;;;;;;;18.48;17.48;;;;;;;;;;5113902;28;20195;-84
2022/04/02 00:13:30;;;;;;;18.65;17.63;;;;;;;;;;5113611;28;20194;-84
2022/04/02 00:15:59;;;;;;;18.92;17.92;;;;;;;;;;5113801;28;20232;-84
2022/04/02 00:18:26;;;;;;;19.27;18.17;;;;;;;;;;5113667;28;20199;-84
2022/04/02 00:20:53;;;;;;;18.90;17.90;;;;;;;;;;5113450;28;20202;-83
2022/04/02 00:26:07;;;;;;;18.00;17.20;;;;;;;;;;5113603;28;20576;-84
2022/04/02 00:28:36;;;;;;;19.20;17.98;;;;;;;;;;5113421;28;20198;-84
2022/04/02 00:31:04;;;;;;;18.88;17.70;;;;;;;;;;5113801;28;20640;-84
2022/04/02 00:33:31;;;;;;;18.95;17.85;;;;;;;;;;5113273;28;20654;-84
2022/04/02 00:35:59;;;;;;;18.08;17.10;;;;;;;;;;5113426;28;20611;-83
2022/04/02 00:38:26;;;;;;;18.55;17.55;;;;;;;;;;5113345;28;20699;-84
2022/04/02 00:40:54;;;;;;;19.95;18.75;;;;;;;;;;5113621;28;20195;-84
2022/04/02 00:43:27;;;;;;;19.08;18.08;;;;;;;;;;5113420;28;20195;-84
2022/04/02 00:45:54;;;;;;;20.40;19.10;;;;;;;;;;5113308;28;20290;-84
2022/04/02 00:48:23;;;;;;;20.65;19.33;;;;;;;;;;5113294;28;20218;-84
2022/04/02 00:50:53;;;;;;;20.23;18.73;;;;;;;;;;5113225;28;20281;-84
2022/04/02 00:53:21;;;;;;;19.55;18.20;;;;;;;;;;5113208;28;20187;-84
2022/04/02 00:55:49;;;;;;;19.95;18.80;;;;;;;;;;5113504;28;20723;-84
2022/04/02 00:58:16;;;;;;;18.75;17.75;;;;;;;;;;5113313;28;20201;-84
2022/04/02 01:00:46;;;;;;;18.70;17.70;;;;;;;;;;5113352;28;20199;-84
2022/04/02 01:03:16;;;;;;;19.83;18.80;;;;;;;;;;5112937;28;20234;-84
2022/04/02 01:05:43;;;;;;;19.05;18.05;;;;;;;;;;5113237;28;20247;-84
2022/04/02 01:08:11;;;;;;;19.48;18.17;;;;;;;;;;5113083;28;20691;-83
2022/04/02 01:10:40;;;;;;;19.52;18.42;;;;;;;;;;5114088;28;20191;-84
2022/04/02 01:13:08;;;;;;;19.33;18.05;;;;;;;;;;5116832;28;20191;-84
2022/04/02 01:15:35;;;;;;;20.70;19.50;;;;;;;;;;5116820;28;20225;-83
2022/04/02 01:18:04;;;;;;;19.15;17.85;;;;;;;;;;5116924;28;20198;-84
2022/04/02 01:20:32;;;;;;;19.63;18.38;;;;;;;;;;5116795;28;20529;-84
2022/04/02 01:23:02;;;;;;;20.05;18.90;;;;;;;;;;5116430;28;20191;-84
2022/04/02 01:25:32;;;;;;;19.15;18.10;;;;;;;;;;5116672;28;20210;-84
2022/04/02 01:28:00;;;;;;;18.30;17.33;;;;;;;;;;5116285;28;20227;-84
2022/04/02 01:30:27;;;;;;;18.55;17.45;;;;;;;;;;5116173;28;20247;-84
2022/04/02 01:32:55;;;;;;;19.40;18.02;;;;;;;;;;5116285;28;20191;-84
2022/04/02 01:35:23;;;;;;;19.05;17.85;;;;;;;;;;5116237;28;20203;-84
2022/04/02 01:37:50;;;;;;;18.73;17.63;;;;;;;;;;5116334;28;20202;-84
2022/04/02 01:40:20;;;;;;;19.60;18.42;;;;;;;;;;5116272;28;20215;-84
2022/04/02 01:42:47;;;;;;;19.02;17.92;;;;;;;;;;5116245;28;20194;-84
2022/04/02 01:45:15;;;;;;;19.23;18.08;;;;;;;;;;5116015;28;20655;-84
2022/04/02 01:47:43;;;;;;;18.55;17.55;;;;;;;;;;5115892;28;20214;-84
2022/04/02 01:50:11;;;;;;;19.45;18.35;;;;;;;;;;5116145;28;20183;-84
2022/04/02 01:52:39;;;;;;;18.83;17.80;;;;;;;;;;5116228;28;20190;-84
2022/04/02 01:55:07;;;;;;;19.08;17.98;;;;;;;;;;5098214;28;20663;-83
2022/04/02 01:57:36;;;;;;;18.80;17.63;;;;;;;;;;5097520;28;20213;-84
2022/04/02 02:00:05;;;;;;;18.92;17.67;;;;;;;;;;5115766;28;20194;-84
2022/04/02 02:02:32;;;;;;;18.20;17.20;;;;;;;;;;5115707;28;20193;-83
2022/04/02 02:05:00;;;;;;;19.05;17.98;;;;;;;;;;5115457;28;20191;-84
2022/04/02 02:07:27;;;;;;;18.70;17.70;;;;;;;;;;5115646;28;20334;-83
2022/04/02 02:09:58;;;;;;;19.10;18.10;;;;;;;;;;5115539;28;20191;-84
2022/04/02 02:12:25;;;;;;;19.92;18.45;;;;;;;;;;5115706;28;20191;-90
2022/04/02 02:14:54;;;;;;;18.90;17.80;;;;;;;;;;5097913;28;20183;-84
2022/04/02 02:17:22;;;;;;;18.75;17.80;;;;;;;;;;5116119;28;20214;-84
2022/04/02 02:19:49;;;;;;;19.50;18.30;;;;;;;;;;5115928;28;20203;-84
2022/04/02 02:22:16;;;;;;;18.50;17.45;;;;;;;;;;5115580;28;20190;-85
2022/04/02 02:24:44;;;;;;;18.63;17.70;;;;;;;;;;5115542;28;20199;-84
2022/04/02 02:27:11;;;;;;;18.88;17.95;;;;;;;;;;5115525;28;20229;-84
2022/04/02 02:29:38;;;;;;;19.40;18.33;;;;;;;;;;5115289;28;20194;-84
2022/04/02 02:32:08;;;;;;;18.42;17.42;;;;;;;;;;5115225;28;20190;-84
2022/04/02 02:37:21;;;;;;;19.85;18.63;;;;;;;;;;5115297;28;20186;-84
2022/04/02 02:39:48;;;;;;;19.60;18.58;;;;;;;;;;5114677;28;20230;-84
2022/04/02 02:42:15;;;;;;;20.60;19.23;;;;;;;;;;5115489;28;20544;-84
2022/04/02 02:44:42;;;;;;;19.50;18.50;;;;;;;;;;5115121;28;20183;-84
2022/04/02 02:47:11;;;;;;;19.90;18.90;;;;;;;;;;5114788;28;20696;-84
2022/04/02 02:49:39;;;;;;;20.52;19.23;;;;;;;;;;5115260;28;20210;-84
2022/04/02 02:52:08;;;;;;;21.27;19.55;;;;;;;;;;5114881;28;20224;-85
2022/04/02 02:54:36;;;;;;;20.38;19.35;;;;;;;;;;5115000;28;20282;-84
2022/04/02 02:57:03;;;;;;;20.02;18.98;;;;;;;;;;5115205;28;20187;-84
2022/04/02 02:59:31;;;;;;;20.02;18.98;;;;;;;;;;5115085;28;20191;-84
2022/04/02 03:01:58;;;;;;;19.80;18.80;;;;;;;;;;5114439;28;20198;-84
2022/04/02 03:04:27;;;;;;;19.63;18.52;;;;;;;;;;5114470;28;20226;-84
2022/04/02 03:06:54;;;;;;;20.15;18.88;;;;;;;;;;5114817;28;20207;-84
2022/04/02 03:09:22;;;;;;;20.42;19.33;;;;;;;;;;5114718;28;20218;-84
2022/04/02 03:11:50;;;;;;;20.10;19.00;;;;;;;;;;5114663;28;20202;-84
2022/04/02 03:14:17;;;;;;;21.15;19.85;;;;;;;;;;5114569;28;20191;-84
2022/04/02 03:16:45;;;;;;;20.60;19.50;;;;;;;;;;5114409;28;20191;-84
2022/04/02 03:19:13;;;;;;;20.67;19.58;;;;;;;;;;5114390;28;20216;-84
2022/04/02 03:21:42;;;;;;;22.42;20.85;;;;;;;;;;5114756;28;20187;-84
2022/04/02 03:24:10;;;;;;;22.05;20.85;;;;;;;;;;5114016;28;20644;-84
2022/04/02 03:26:38;;;;;;;20.30;19.27;;;;;;;;;;5114464;28;20210;-84
2022/04/02 03:29:06;;;;;;;20.83;19.63;;;;;;;;;;5114178;28;20222;-84
2022/04/02 03:31:33;;;;;;;20.33;19.23;;;;;;;;;;5114021;28;20191;-84
2022/04/02 03:34:00;;;;;;;20.63;19.50;;;;;;;;;;5114043;28;20198;-84
2022/04/02 03:36:29;;;;;;;21.15;19.73;;;;;;;;;;5113933;28;20213;-83
2022/04/02 03:38:57;;;;;;;20.80;19.70;;;;;;;;;;5113954;28;20211;-84
2022/04/02 03:41:26;;;;;;;21.42;20.13;;;;;;;;;;5114218;28;20195;-84
2022/04/02 03:43:56;;;;;;;20.60;19.30;;;;;;;;;;5114069;28;20282;-84
2022/04/02 03:49:08;;;;;;;20.58;19.50;;;;;;;;;;5113840;28;20237;-84
2022/04/02 03:51:36;;;;;;;19.95;18.85;;;;;;;;;;5114163;28;20201;-84
2022/04/02 03:54:05;;;;;;;20.23;19.20;;;;;;;;;;5114007;28;20187;-84
2022/04/02 03:56:32;;;;;;;20.42;19.33;;;;;;;;;;5113814;28;20632;-85
2022/04/02 03:58:59;;;;;;;21.05;19.70;;;;;;;;;;5113782;28;20685;-85
2022/04/02 04:01:27;;;;;;;20.02;19.05;;;;;;;;;;5113889;28;20189;-84
2022/04/02 04:03:54;;;;;;;20.15;18.92;;;;;;;;;;5113822;28;20226;-85
2022/04/02 04:06:21;;;;;;;21.13;19.85;;;;;;;;;;5113839;28;20187;-84
2022/04/02 04:08:49;;;;;;;19.63;18.65;;;;;;;;;;5113711;28;20218;-84
2022/04/02 04:11:18;;;;;;;21.52;20.20;;;;;;;;;;5114099;28;20198;-84
2022/04/02 04:13:46;;;;;;;22.02;20.83;;;;;;;;;;5114070;28;20644;-85
2022/04/02 04:16:13;;;;;;;20.90;19.60;;;;;;;;;;5113517;28;20191;-85
2022/04/02 04:18:40;;;;;;;20.70;19.60;;;;;;;;;;5095796;28;20199;-84
2022/04/02 04:21:08;;;;;;;21.58;20.40;;;;;;;;;;5078945;28;20656;-85
2022/04/02 04:23:35;;;;;;;21.08;19.98;;;;;;;;;;5113642;28;20194;-85
2022/04/02 04:26:03;;;;;;;19.92;18.73;;;;;;;;;;5114073;28;20187;-85
2022/04/02 04:28:32;;;;;;;21.05;19.95;;;;;;;;;;5113524;28;20219;-85
2022/04/02 04:30:59;;;;;;;21.00;19.75;;;;;;;;;;5113827;28;20187;-85
2022/04/02 04:33:26;;;;;;;21.42;20.23;;;;;;;;;;5113722;28;20195;-84
2022/04/02 04:35:54;;;;;;;21.60;20.15;;;;;;;;;;5113729;28;20195;-84
2022/04/02 04:38:21;;;;;;;21.25;19.95;;;;;;;;;;5113684;28;20229;-84
2022/04/02 04:40:48;;;;;;;22.60;21.08;;;;;;;;;;5113374;28;20190;-85
2022/04/02 04:43:16;;;;;;;20.92;19.83;;;;;;;;;;5113749;28;20194;-85
2022/04/02 04:45:45;;;;;;;21.15;20.05;;;;;;;;;;5114307;28;20190;-85
2022/04/02 04:48:12;;;;;;;20.00;19.00;;;;;;;;;;5117305;28;20615;-85
2022/04/02 04:50:39;;;;;;;20.23;19.13;;;;;;;;;;5118017;28;20190;-85
2022/04/02 04:53:08;;;;;;;20.65;19.38;;;;;;;;;;5099637;28;20885;-84
2022/04/02 04:55:35;;;;;;;20.48;19.25;;;;;;;;;;5117405;28;20200;-85
2022/04/02 04:58:02;;;;;;;21.85;20.45;;;;;;;;;;5117146;28;20193;-85
2022/04/02 05:00:30;;;;;;;21.27;20.08;;;;;;;;;;5117394;28;20209;-85
2022/04/02 05:02:59;;;;;;;20.85;19.65;;;;;;;;;;5117242;28;20238;-85
2022/04/02 05:05:27;;;;;;;20.90;19.60;;;;;;;;;;5117427;28;20278;-85
2022/04/02 05:07:55;;;;;;;21.00;19.90;;;;;;;;;;5116783;28;20241;-85
2022/04/02 05:10:22;;;;;;;21.33;20.05;;;;;;;;;;5117006;28;20183;-85
2022/04/02 05:12:50;;;;;;;21.38;19.98;;;;;;;;;;5116893;28;20656;-85
2022/04/02 05:15:17;;;;;;;20.88;19.77;;;;;;;;;;5117134;28;20187;-85
2022/04/02 05:17:45;;;;;;;21.00;19.80;;;;;;;;;;5117101;28;20617;-85
2022/04/02 05:20:14;;;;;;;22.15;20.85;;;;;;;;;;5117011;28;20191;-85
2022/04/02 05:22:42;;;;;;;20.20;19.10;;;;;;;;;;5116635;28;20191;-85
2022/04/02 05:25:10;;;;;;;22.17;20.23;;;;;;;;;;5116503;28;20202;-83
2022/04/02 05:27:38;;;;;;;21.40;20.20;;;;;;;;;;5117003;28;20187;-85
2022/04/02 05:30:06;;;;;;;21.60;20.40;;;;;;;;;;5117049;28;20202;-85
2022/04/02 05:32:34;;;;;;;21.35;20.15;;;;;;;;;;5117171;28;20187;-91
2022/04/02 05:35:01;;;;;;;21.30;20.15;;;;;;;;;;5099410;28;20190;-91
2022/04/02 05:37:30;;;;;;;21.45;20.25;;;;;;;;;;5117197;28;20225;-92
2022/04/02 05:39:58;;;;;;;21.25;20.10;;;;;;;;;;5117038;28;20235;-83
2022/04/02 05:42:26;;;;;;;21.58;20.33;;;;;;;;;;5116673;28;20203;-84
2022/04/02 05:44:54;;;;;;;22.17;21.05;;;;;;;;;;5116790;28;20187;-89
2022/04/02 05:47:21;;;;;;;22.30;21.00;;;;;;;;;;5117143;28;20556;-92
2022/04/02 05:49:51;;;;;;;22.00;20.80;;;;;;;;;;5117202;28;20221;-92
2022/04/02 05:52:18;;;;;;;22.17;20.95;;;;;;;;;;5116810;28;20289;-91
2022/04/02 05:54:47;;;;;;;21.77;20.33;;;;;;;;;;5116895;28;20724;-93
2022/04/02 05:57:14;;;;;;;22.00;20.50;;;;;;;;;;5116398;28;20202;-92
2022/04/02 05:59:42;;;;;;;22.00;20.70;;;;;;;;;;5117006;28;20179;-91
2022/04/02 06:02:10;;;;;;;21.55;20.25;;;;;;;;;;5115973;28;20206;-91
2022/04/02 06:04:37;;;;;;;22.75;21.33;;;;;;;;;;5116239;28;20707;-91
2022/04/02 06:07:05;;;;;;;23.13;21.63;;;;;;;;;;5116940;28;20206;-92
2022/04/02 06:09:32;;;;;;;21.80;20.60;;;;;;;;;;5116724;28;20675;-91
2022/04/02 06:12:01;;;;;;;23.35;21.95;;;;;;;;;;5116793;28;20542;-91
2022/04/02 06:14:29;;;;;;;22.73;21.33;;;;;;;;;;5116802;28;20536;-91
2022/04/02 06:16:56;;;;;;;21.75;20.65;;;;;;;;;;5098643;28;20541;-93
2022/04/02 06:19:24;;;;;;;22.58;21.38;;;;;;;;;;5116464;28;20191;-93
2022/04/02 06:21:51;;;;;;;22.85;21.55;;;;;;;;;;5098683;28;20183;-93
2022/04/02 06:24:19;;;;;;;22.70;21.40;;;;;;;;;;5116479;28;20197;-89
2022/04/02 06:26:46;;;;;;;23.27;21.77;;;;;;;;;;5116691;28;20191;-91
2022/04/02 06:29:15;;;;;;;23.58;22.10;;;;;;;;;;5116418;28;20218;-91
2022/04/02 06:31:42;;;;;;;24.00;22.10;;;;;;;;;;5116212;28;20191;-91
2022/04/02 06:34:11;;;;;;;22.10;20.90;;;;;;;;;;5116363;28;20198;-91
2022/04/02 06:36:38;;;;;;;23.30;21.90;;;;;;;;;;5116185;28;20218;-91
2022/04/02 06:39:06;;;;;;;22.50;20.70;;;;;;;;;;5116150;28;20229;-92
2022/04/02 06:41:33;;;;;;;22.55;21.15;;;;;;;;;;5116214;28;20269;-95
2022/04/02 06:44:01;;;;;;;22.08;20.40;;;;;;;;;;5116513;28;20545;-94
2022/04/02 06:46:29;;;;;;;21.67;20.55;;;;;;;;;;5116212;28;20281;-92
2022/04/02 06:48:57;;;;;;;22.70;21.40;;;;;;;;;;5115660;28;20211;-91
2022/04/02 06:51:26;;;;;;;22.20;20.85;;;;;;;;;;5115468;28;20187;-90
2022/04/02 06:53:54;;;;;;;22.27;20.58;;;;;;;;;;5115806;28;20222;-91
2022/04/02 06:56:21;;;;;;;22.58;21.27;;;;;;;;;;5115595;28;20205;-91
2022/04/02 06:58:49;;;;;;;20.63;19.52;;;;;;;;;;5097391;28;20714;-92
2022/04/02 07:01:16;;;;;;;22.38;21.08;;;;;;;;;;5115092;28;20210;-92
2022/04/02 07:03:46;;;;;;;23.25;21.80;;;;;;;;;;5114879;28;20242;-94
2022/04/02 07:06:13;;;;;;;22.80;21.50;;;;;;;;;;5115552;28;20186;-95
2022/04/02 07:08:41;;;;;;;22.35;21.15;;;;;;;;;;5114727;28;20206;-94
2022/04/02 07:11:08;;;;;;;26.30;24.90;;;;;;;;;;5115164;28;20191;-93
2022/04/02 07:13:35;;;;;;;22.73;21.48;;;;;;;;;;5115549;28;20540;-94
2022/04/02 07:16:03;;;;;;;22.95;21.50;;;;;;;;;;5115352;28;20545;-93
2022/04/02 07:18:32;;;;;;;22.95;21.45;;;;;;;;;;5115197;28;20206;-93
2022/04/02 07:21:02;;;;;;;24.13;22.83;;;;;;;;;;5097372;28;20289;-93
2022/04/02 07:23:30;;;;;;;23.90;22.40;;;;;;;;;;5097696;28;20241;-93
2022/04/02 07:25:58;;;;;;;23.55;22.35;;;;;;;;;;5115760;28;20216;-93
2022/04/02 07:28:27;;;;;;;22.35;21.00;;;;;;;;;;5115064;28;20195;-93
2022/04/02 07:30:54;;;;;;;23.23;21.92;;;;;;;;;;5114915;28;20555;-94
2022/04/02 07:33:22;;;;;;;22.35;21.05;;;;;;;;;;5115548;28;20205;-94
2022/04/02 07:35:54;;;;;;;22.80;21.30;;;;;;;;;;5116450;28;20206;-95
2022/04/02 07:38:24;;;;;;;22.38;21.08;;;;;;;;;;5118764;28;20222;-96
2022/04/02 07:40:54;;;;;;;22.40;21.10;;;;;;;;;;5120214;28;20202;-96
2022/04/02 07:43:27;;;;;;;23.17;21.73;;;;;;;;;;5121609;28;20187;-96
2022/04/02 07:46:01;;;;;;;22.90;21.60;;;;;;;;;;5116196;28;20211;-96
2022/04/02 07:48:30;;;;;;;23.70;22.20;;;;;;;;;;5118295;28;20280;-95
2022/04/02 07:50:57;;;;;;;24.10;22.70;;;;;;;;;;5121378;28;20198;-91
2022/04/02 07:53:27;;;;;;;24.00;22.63;;;;;;;;;;5115294;28;20191;-94
2022/04/02 07:55:58;;;;;;;24.00;22.58;;;;;;;;;;5115402;28;20206;-94
2022/04/02 07:58:28;;;;;;;24.30;22.90;;;;;;;;;;5098111;28;20202;-95
2022/04/02 08:00:57;;;;;;;24.52;23.13;;;;;;;;;;5116065;28;20187;-96
2022/04/02 08:03:24;;;;;;;24.75;23.13;;;;;;;;;;5117998;28;20230;-96
2022/04/02 08:05:55;;;;;;;24.67;23.10;;;;;;;;;;5097475;28;20191;-95
2022/04/02 08:08:25;;;;;;;24.20;22.80;;;;;;;;;;5096430;28;20198;-95
2022/04/02 08:10:55;;;;;;;23.70;22.42;;;;;;;;;;5114681;28;20187;-89
2022/04/02 08:13:23;;;;;;;24.40;22.95;;;;;;;;;;5114578;28;20191;-89
2022/04/02 08:15:54;;;;;;;24.15;22.85;;;;;;;;;;5114342;28;20187;-89
2022/04/02 08:18:25;;;;;;;24.73;23.17;;;;;;;;;;5114736;28;20572;-93
2022/04/02 08:20:54;;;;;;;24.42;22.73;;;;;;;;;;5118135;28;20552;-96
2022/04/02 08:23:21;;;;;;;23.92;22.52;;;;;;;;;;5120137;28;20293;-96
2022/04/02 08:25:50;;;;;;;24.13;22.70;;;;;;;;;;5119074;28;20183;-94
2022/04/02 08:28:24;;;;;;;23.52;22.13;;;;;;;;;;5118197;28;20740;-94
2022/04/02 08:30:56;;;;;;;23.13;21.77;;;;;;;;;;5100611;28;20621;-94
2022/04/02 08:33:32;;;;;;;23.88;22.48;;;;;;;;;;5100497;28;20290;-94
2022/04/02 08:36:04;;;;;;;24.70;23.10;;;;;;;;;;5100368;28;20206;-95
2022/04/02 08:38:40;;;;;;;24.10;22.70;;;;;;;;;;5118106;28;20217;-95
2022/04/02 08:41:26;;;;;;;22.92;21.63;;;;;;;;;;5118611;28;20701;-95
2022/04/02 08:44:17;;;;;;;24.40;22.52;;;;;;;;;;5119415;28;20222;-95
2022/04/02 08:46:56;;;;;;;24.52;23.02;;;;;;;;;;5118095;28;20207;-96
2022/04/02 08:49:24;;;;;;;23.60;22.20;;;;;;;;;;5100107;28;20233;-95
2022/04/02 08:52:05;;;;;;;24.15;22.63;;;;;;;;;;5118410;28;20195;-95
2022/04/02 08:54:40;;;;;;;24.75;23.13;;;;;;;;;;5100542;28;20206;-91
2022/04/02 08:57:16;;;;;;;24.10;22.42;;;;;;;;;;5118110;28;20191;-92
2022/04/02 08:59:49;;;;;;;24.15;22.58;;;;;;;;;;5118199;28;20194;-91
2022/04/02 09:02:49;;;;;;;24.80;23.25;;;;;;;;;;5118066;28;20199;-90
2022/04/02 09:05:22;;;;;;;23.48;22.00;;;;;;;;;;5077402;28;20192;-91
2022/04/02 09:08:08;;;;;;;23.20;21.80;;;;;;;;;;5077994;28;20249;-92
2022/04/02 09:10:44;;;;;;;23.95;22.30;;;;;;;;;;5075173;28;20230;-91
2022/04/02 09:13:38;;;;;;;22.90;21.50;;;;;;;;;;5079678;28;20698;-88
2022/04/02 09:16:08;;;;;;;22.85;21.15;;;;;;;;;;5019692;28;20205;-93
2022/04/02 09:18:39;;;;;;;24.00;22.50;;;;;;;;;;5020665;28;20632;-93
2022/04/02 09:21:23;;;;;;;23.60;22.02;;;;;;;;;;5015835;28;20209;-92
2022/04/02 09:23:57;;;;;;;24.13;22.55;;;;;;;;;;5016435;28;20210;-92
2022/04/02 09:26:52;;;;;;;24.75;23.10;;;;;;;;;;5015616;28;20225;-92
2022/04/02 09:29:27;;;;;;;23.80;22.33;;;;;;;;;;5016144;28;20237;-92
2022/04/02 09:32:12;;;;;;;23.95;22.45;;;;;;;;;;5014817;28;20248;-93
2022/04/02 09:34:57;;;;;;;23.33;21.95;;;;;;;;;;5000313;28;20626;-90
2022/04/02 09:37:41;;;;;;;24.58;23.08;;;;;;;;;;4999112;28;20218;-92
2022/04/02 09:40:09;;;;;;;24.17;22.58;;;;;;;;;;5015394;28;20206;-92
2022/04/02 09:42:38;;;;;;;24.83;23.23;;;;;;;;;;5015479;28;20205;-91
2022/04/02 09:45:10;;;;;;;24.90;23.40;;;;;;;;;;5016430;28;20202;-91
2022/04/02 09:47:52;;;;;;;25.42;23.73;;;;;;;;;;5015107;28;20186;-91
2022/04/02 09:50:21;;;;;;;24.77;23.27;;;;;;;;;;5014773;28;20236;-92
2022/04/02 09:52:55;;;;;;;25.02;23.42;;;;;;;;;;5067543;28;20205;-92
2022/04/02 09:55:23;;;;;;;24.67;23.17;;;;;;;;;;5077274;28;20193;-92
2022/04/02 09:58:00;;;;;;;25.77;24.08;;;;;;;;;;5076934;28;20192;-93
2022/04/02 10:00:31;;;;;;;24.40;23.00;;;;;;;;;;5076744;28;20223;-92
2022/04/02 10:03:02;;;;;;;24.60;22.58;;;;;;;;;;5085130;28;20238;-93
2022/04/02 10:05:37;;;;;;;23.00;21.70;;;;;;;;;;5118250;28;20202;-90
2022/04/02 10:08:07;;;;;;;23.77;22.20;;;;;;;;;;5118972;28;20245;-91
2022/04/02 10:10:35;;;;;;;25.23;23.52;;;;;;;;;;5116746;28;20679;-90
2022/04/02 10:13:03;;;;;;;23.45;21.83;;;;;;;;;;5118161;28;20226;-91
2022/04/02 10:15:32;;;;;;;23.85;22.35;;;;;;;;;;5117176;28;20632;-91
2022/04/02 10:18:03;;;;;;;24.35;22.90;;;;;;;;;;5116929;28;20548;-88
2022/04/02 10:20:31;;;;;;;24.30;22.80;;;;;;;;;;5116667;28;20229;-89
2022/04/02 10:23:03;;;;;;;24.23;22.83;;;;;;;;;;5116513;28;20641;-88
2022/04/02 10:25:34;;;;;;;22.83;21.52;;;;;;;;;;5116335;28;20553;-90
2022/04/02 10:28:03;;;;;;;22.83;21.40;;;;;;;;;;5115551;28;20195;-90
2022/04/02 10:30:32;;;;;;;23.65;22.23;;;;;;;;;;5116643;28;20214;-90
2022/04/02 10:33:26;;;;;;;23.63;22.13;;;;;;;;;;5117531;28;20210;-90
2022/04/02 10:35:51;;;;;;;23.77;22.38;;;;;;;;;;5116562;28;20691;-89
2022/04/02 10:38:25;;;;;;;23.98;22.52;;;;;;;;;;5116245;28;20258;-91
2022/04/02 10:40:55;;;;;;;23.35;22.02;;;;;;;;;;5117325;28;20210;-91
2022/04/02 10:43:25;;;;;;;23.42;21.83;;;;;;;;;;5115403;28;20640;-90
2022/04/02 10:45:53;;;;;;;24.30;22.80;;;;;;;;;;5116048;28;20187;-90
2022/04/02 10:48:25;;;;;;;23.92;22.63;;;;;;;;;;5115973;28;20202;-89
2022/04/02 10:50:55;;;;;;;22.73;21.40;;;;;;;;;;5115771;28;20222;-89
2022/04/02 10:53:23;;;;;;;21.85;20.65;;;;;;;;;;5116326;28;20226;-90
2022/04/02 10:55:58;;;;;;;23.02;21.73;;;;;;;;;;5114980;28;20195;-90
2022/04/02 10:58:27;;;;;;;22.95;21.55;;;;;;;;;;5115542;28;20289;-88
2022/04/02 11:00:57;;;;;;;23.67;22.17;;;;;;;;;;5115952;28;20218;-88
2022/04/02 11:03:30;;;;;;;23.70;22.30;;;;;;;;;;5114992;28;20279;-88
2022/04/02 11:05:59;;;;;;;23.23;21.92;;;;;;;;;;5115914;28;20183;-88
2022/04/02 11:08:31;;;;;;;22.52;21.20;;;;;;;;;;5098072;28;20187;-87
2022/04/02 11:11:00;;;;;;;23.38;21.80;;;;;;;;;;5115166;28;20250;-88
2022/04/02 11:13:33;;;;;;;23.25;21.85;;;;;;;;;;5115297;28;20248;-88
2022/04/02 11:16:00;;;;;;;23.10;21.70;;;;;;;;;;5115518;28;20222;-88
2022/04/02 11:18:27;;;;;;;23.40;22.00;;;;;;;;;;5115386;28;20202;-87
2022/04/02 11:21:03;;;;;;;24.42;22.85;;;;;;;;;;5115429;28;20187;-88
2022/04/02 11:23:40;;;;;;;23.02;21.60;;;;;;;;;;5115200;28;20644;-89
2022/04/02 11:26:11;;;;;;;24.70;23.20;;;;;;;;;;5115264;28;20205;-89
2022/04/02 11:28:44;;;;;;;23.25;21.85;;;;;;;;;;5115466;28;20198;-89
2022/04/02 11:31:13;;;;;;;22.80;21.42;;;;;;;;;;5114999;28;20232;-89
2022/04/02 11:33:51;;;;;;;23.15;21.83;;;;;;;;;;5115065;28;20521;-89
2022/04/02 11:36:23;;;;;;;22.42;21.13;;;;;;;;;;5115169;28;20191;-89
2022/04/02 11:38:53;;;;;;;24.13;22.63;;;;;;;;;;5114793;28;20229;-90
2022/04/02 11:41:21;;;;;;;23.83;22.42;;;;;;;;;;5115172;28;20202;-89
2022/04/02 11:43:52;;;;;;;24.63;23.23;;;;;;;;;;5115041;28;20219;-89
2022/04/02 11:46:21;;;;;;;25.60;24.13;;;;;;;;;;5114841;28;20663;-89
2022/04/02 11:48:53;;;;;;;25.45;23.85;;;;;;;;;;5114795;28;20206;-87
2022/04/02 11:51:21;;;;;;;24.98;23.33;;;;;;;;;;5114664;28;20218;-89
2022/04/02 11:53:49;;;;;;;24.17;22.77;;;;;;;;;;5096586;28;20205;-89
2022/04/02 11:56:27;;;;;;;25.83;24.23;;;;;;;;;;5114040;28;20198;-89
2022/04/02 11:58:57;;;;;;;25.23;23.73;;;;;;;;;;5114790;28;20589;-86
2022/04/02 12:01:24;;;;;;;24.80;23.40;;;;;;;;;;5114591;28;20199;-86
2022/04/02 12:04:12;;;;;;;26.30;24.80;;;;;;;;;;5114089;28;20238;-86
2022/04/02 12:06:41;;;;;;;26.15;24.55;;;;;;;;;;5114143;28;20216;-86
2022/04/02 12:09:13;;;;;;;25.00;23.55;;;;;;;;;;5114131;28;20206;-86
2022/04/02 12:11:43;;;;;;;23.73;22.33;;;;;;;;;;5113691;28;20211;-85
2022/04/02 12:14:12;;;;;;;24.27;22.67;;;;;;;;;;5113956;28;20194;-87
2022/04/02 12:16:41;;;;;;;23.92;22.33;;;;;;;;;;5114671;28;20195;-90
2022/04/02 12:19:12;;;;;;;24.50;23.10;;;;;;;;;;5114084;28;20293;-86
2022/04/02 12:21:43;;;;;;;23.67;22.27;;;;;;;;;;5114377;28;20199;-86
2022/04/02 12:24:12;;;;;;;24.88;23.45;;;;;;;;;;5113850;28;20628;-86
2022/04/02 12:26:39;;;;;;;23.75;22.25;;;;;;;;;;5114206;28;20183;-86
2022/04/02 12:29:07;;;;;;;23.55;22.25;;;;;;;;;;5114413;28;20190;-86
2022/04/02 12:31:36;;;;;;;23.38;22.08;;;;;;;;;;5114715;28;20226;-86
2022/04/02 12:34:04;;;;;;;23.42;22.08;;;;;;;;;;5114200;28;20552;-86
2022/04/02 12:36:33;;;;;;;23.40;22.10;;;;;;;;;;5113817;28;20187;-86
2022/04/02 12:39:01;;;;;;;24.95;23.45;;;;;;;;;;5114326;28;20223;-87
2022/04/02 12:41:29;;;;;;;23.67;22.17;;;;;;;;;;5113911;28;20222;-86
2022/04/02 12:44:00;;;;;;;25.00;23.60;;;;;;;;;;5114244;28;20191;-87
2022/04/02 12:46:28;;;;;;;24.52;23.23;;;;;;;;;;5114258;28;20199;-87
2022/04/02 12:48:57;;;;;;;25.02;23.52;;;;;;;;;;5113916;28;20187;-88
2022/04/02 12:51:25;;;;;;;25.10;23.55;;;;;;;;;;5113978;28;20326;-88
2022/04/02 12:54:00;;;;;;;23.38;21.63;;;;;;;;;;5113905;28;20207;-88
2022/04/02 12:56:28;;;;;;;22.98;21.77;;;;;;;;;;5114471;28;20190;-88
2022/04/02 12:58:56;;;;;;;22.95;21.65;;;;;;;;;;5114503;28;20215;-90
2022/04/02 13:01:32;;;;;;;23.27;21.70;;;;;;;;;;5114468;28;20207;-96
2022/04/02 13:04:12;;;;;;;23.40;22.10;;;;;;;;;;5095774;28;20234;-90
2022/04/02 13:06:48;;;;;;;22.95;21.65;;;;;;;;;;5115709;28;20260;-94
2022/04/02 13:09:16;;;;;;;22.60;21.30;;;;;;;;;;5118084;28;20520;-95
2022/04/02 13:11:48;;;;;;;24.58;23.05;;;;;;;;;;5100312;28;20218;-95
2022/04/02 13:14:16;;;;;;;23.65;22.10;;;;;;;;;;5117719;28;20640;-92
2022/04/02 13:16:44;;;;;;;24.20;22.90;;;;;;;;;;5118188;28;20190;-93
2022/04/02 13:22:05;;;;;;;23.45;22.10;;;;;;;;;;5117513;28;20186;-90
2022/04/02 13:24:47;;;;;;;23.45;22.08;;;;;;;;;;5117806;28;20193;-91
2022/04/02 13:27:33;;;;;;;23.30;22.00;;;;;;;;;;5115524;28;20203;-91
2022/04/02 13:30:06;;;;;;;22.73;21.52;;;;;;;;;;5099302;28;20537;-89
2022/04/02 13:32:51;;;;;;;24.05;22.65;;;;;;;;;;5117571;28;20218;-91
2022/04/02 13:35:26;;;;;;;23.08;21.77;;;;;;;;;;5107532;28;20761;-94
2022/04/02 13:38:01;;;;;;;24.05;22.58;;;;;;;;;;5117199;28;20767;-94
2022/04/02 13:40:30;;;;;;;22.60;21.30;;;;;;;;;;5117258;28;20221;-92
2022/04/02 13:42:58;;;;;;;23.70;22.20;;;;;;;;;;5117556;28;20187;-93
2022/04/02 13:45:27;;;;;;;23.35;22.02;;;;;;;;;;5099171;28;20445;-93
2022/04/02 13:47:57;;;;;;;23.08;21.88;;;;;;;;;;5117169;28;20671;-93
2022/04/02 13:50:28;;;;;;;23.98;22.58;;;;;;;;;;5099067;28;20212;-93
2022/04/02 13:53:02;;;;;;;23.90;22.50;;;;;;;;;;5117141;28;20210;-93
2022/04/02 13:55:30;;;;;;;22.98;21.67;;;;;;;;;;5117109;28;20230;-93
2022/04/02 13:58:02;;;;;;;23.37;21.80;;;;;;;;;;5116995;28;20205;-96
2022/04/02 14:00:32;;;;;;;23.85;22.55;;;;;;;;;;5117156;28;20432;-94
2022/04/02 14:03:01;;;;;;;24.07;22.77;;;;;;;;;;5116875;28;20241;-94
2022/04/02 14:05:30;;;;;;;22.60;21.30;;;;;;;;;;5116921;28;20471;-94
2022/04/02 14:08:01;;;;;;;23.13;21.83;;;;;;;;;;5117001;28;20191;-95
2022/04/02 14:10:35;;;;;;;24.10;22.43;;;;;;;;;;5116795;28;20437;-95
2022/04/02 14:13:04;;;;;;;23.27;21.87;;;;;;;;;;5116956;28;20429;-95
2022/04/02 14:15:36;;;;;;;22.67;21.37;;;;;;;;;;5116627;28;20433;-94
2022/04/02 14:18:05;;;;;;;23.23;21.93;;;;;;;;;;5116329;28;20440;-95
2022/04/02 14:20:33;;;;;;;23.73;22.43;;;;;;;;;;5116554;28;20429;-95
2022/04/02 14:23:05;;;;;;;22.30;21.00;;;;;;;;;;5116514;28;20419;-91
2022/04/02 14:25:42;;;;;;;23.23;22.02;;;;;;;;;;5116586;28;20755;-92
2022/04/02 14:28:34;;;;;;;22.98;21.67;;;;;;;;;;5116236;28;20233;-92
2022/04/02 14:31:25;;;;;;;23.45;22.15;;;;;;;;;;5116120;28;20214;-92
2022/04/02 14:34:05;;;;;;;23.20;21.97;;;;;;;;;;5101060;28;20210;-95
2022/04/02 14:37:01;;;;;;;23.92;22.48;;;;;;;;;;5098741;28;20916;-95
2022/04/02 14:39:46;;;;;;;24.08;22.83;;;;;;;;;;5098571;28;20219;-96
2022/04/02 14:42:16;;;;;;;23.48;22.17;;;;;;;;;;5118327;28;20202;-86
2022/04/02 14:45:07;;;;;;;22.67;21.37;;;;;;;;;;5120239;28;20652;-96